sensor_id;sensor_type;location;lat;lon;timestamp;P1;durP1;ratioP1;P2;durP2;ratioP2
35290;SDS011;21411;50.024;19.220;2023-09-18T00:00:02;9.80;;;8.90;;
35290;SDS011;21411;50.024;19.220;2023-09-18T00:02:57;10.10;;;9.20;;
35290;SDS011;21411;50.024;19.220;2023-09-18T00:05:24;9.90;;;9.00;;
35290;SDS011;21411;50.024;19.220;2023-09-18T00:07:51;9.50;;;8.60;;
35290;SDS011;21411;50.024;19.220;2023-09-18T00:10:18;9.50;;;8.60;;
35290;SDS011;21411;50.024;19.220;2023-09-18T00:12:45;10.20;;;8.40;;
35290;SDS011;21411;50.024;19.220;2023-09-18T00:15:11;11.10;;;9.50;;
35290;SDS011;21411;50.024;19.220;2023-09-18T00:17:38;9.80;;;8.80;;
35290;SDS011;21411;50.024;19.220;2023-09-18T00:20:04;9.30;;;8.50;;
35290;SDS011;21411;50.024;19.220;2023-09-18T00:22:33;9.80;;;8.90;;
35290;SDS011;21411;50.024;19.220;2023-09-18T00:24:59;11.00;;;9.50;;
35290;SDS011;21411;50.024;19.220;2023-09-18T00:27:27;11.20;;;9.10;;
35290;SDS011;21411;50.024;19.220;2023-09-18T00:29:54;8.80;;;8.10;;
35290;SDS011;21411;50.024;19.220;2023-09-18T00:32:20;10.90;;;9.70;;
35290;SDS011;21411;50.024;19.220;2023-09-18T00:34:47;11.10;;;9.60;;
35290;SDS011;21411;50.024;19.220;2023-09-18T00:37:14;10.30;;;9.40;;
35290;SDS011;21411;50.024;19.220;2023-09-18T00:39:41;11.90;;;9.60;;
35290;SDS011;21411;50.024;19.220;2023-09-18T00:42:08;11.20;;;10.10;;
35290;SDS011;21411;50.024;19.220;2023-09-18T00:44:40;11.50;;;10.50;;
35290;SDS011;21411;50.024;19.220;2023-09-18T00:47:07;10.80;;;9.70;;
35290;SDS011;21411;50.024;19.220;2023-09-18T00:49:35;11.00;;;10.00;;
35290;SDS011;21411;50.024;19.220;2023-09-18T00:54:33;11.10;;;10.10;;
35290;SDS011;21411;50.024;19.220;2023-09-18T00:57:01;12.00;;;10.60;;
35290;SDS011;21411;50.024;19.220;2023-09-18T00:59:27;11.40;;;10.30;;
35290;SDS011;21411;50.024;19.220;2023-09-18T01:01:54;11.30;;;10.30;;
35290;SDS011;21411;50.024;19.220;2023-09-18T01:04:21;12.40;;;11.20;;
35290;SDS011;21411;50.024;19.220;2023-09-18T01:06:48;12.80;;;11.50;;
35290;SDS011;21411;50.024;19.220;2023-09-18T01:09:18;12.60;;;11.40;;
35290;SDS011;21411;50.024;19.220;2023-09-18T01:14:29;13.20;;;11.90;;
35290;SDS011;21411;50.024;19.220;2023-09-18T01:17:00;15.40;;;12.60;;
35290;SDS011;21411;50.024;19.220;2023-09-18T01:19:38;14.10;;;12.60;;
35290;SDS011;21411;50.024;19.220;2023-09-18T01:22:11;13.00;;;11.70;;
35290;SDS011;21411;50.024;19.220;2023-09-18T01:24:39;13.50;;;11.80;;
35290;SDS011;21411;50.024;19.220;2023-09-18T01:27:07;13.90;;;12.60;;
35290;SDS011;21411;50.024;19.220;2023-09-18T01:32:02;12.40;;;11.20;;
35290;SDS011;21411;50.024;19.220;2023-09-18T01:34:33;13.70;;;12.40;;
35290;SDS011;21411;50.024;19.220;2023-09-18T01:37:03;13.70;;;12.00;;
35290;SDS011;21411;50.024;19.220;2023-09-18T01:39:32;16.00;;;13.20;;
35290;SDS011;21411;50.024;19.220;2023-09-18T01:42:01;15.00;;;13.60;;
35290;SDS011;21411;50.024;19.220;2023-09-18T01:44:30;15.00;;;13.50;;
35290;SDS011;21411;50.024;19.220;2023-09-18T01:46:58;15.10;;;13.80;;
35290;SDS011;21411;50.024;19.220;2023-09-18T01:49:29;14.50;;;13.30;;
35290;SDS011;21411;50.024;19.220;2023-09-18T01:51:58;14.50;;;13.10;;
35290;SDS011;21411;50.024;19.220;2023-09-18T01:54:24;15.60;;;14.10;;
35290;SDS011;21411;50.024;19.220;2023-09-18T01:56:51;15.00;;;13.60;;
35290;SDS011;21411;50.024;19.220;2023-09-18T01:59:19;14.30;;;12.90;;
35290;SDS011;21411;50.024;19.220;2023-09-18T02:01:47;15.20;;;13.80;;
35290;SDS011;21411;50.024;19.220;2023-09-18T02:04:13;14.40;;;13.10;;
35290;SDS011;21411;50.024;19.220;2023-09-18T02:06:40;15.00;;;13.60;;
35290;SDS011;21411;50.024;19.220;2023-09-18T02:09:07;14.70;;;13.10;;
35290;SDS011;21411;50.024;19.220;2023-09-18T02:11:36;15.90;;;14.10;;
35290;SDS011;21411;50.024;19.220;2023-09-18T02:14:04;16.10;;;14.60;;
35290;SDS011;21411;50.024;19.220;2023-09-18T02:16:35;15.60;;;14.10;;
35290;SDS011;21411;50.024;19.220;2023-09-18T02:19:03;15.90;;;14.40;;
35290;SDS011;21411;50.024;19.220;2023-09-18T02:21:30;17.20;;;15.70;;
35290;SDS011;21411;50.024;19.220;2023-09-18T02:23:57;15.40;;;13.80;;
35290;SDS011;21411;50.024;19.220;2023-09-18T02:26:24;16.50;;;15.00;;
35290;SDS011;21411;50.024;19.220;2023-09-18T02:28:51;16.80;;;15.30;;
35290;SDS011;21411;50.024;19.220;2023-09-18T02:31:20;15.50;;;14.10;;
35290;SDS011;21411;50.024;19.220;2023-09-18T02:33:47;16.60;;;15.10;;
35290;SDS011;21411;50.024;19.220;2023-09-18T02:36:13;15.80;;;14.40;;
35290;SDS011;21411;50.024;19.220;2023-09-18T02:38:40;16.70;;;15.20;;
35290;SDS011;21411;50.024;19.220;2023-09-18T02:41:07;15.20;;;13.80;;
35290;SDS011;21411;50.024;19.220;2023-09-18T02:43:33;16.00;;;14.20;;
35290;SDS011;21411;50.024;19.220;2023-09-18T02:46:00;15.60;;;14.10;;
35290;SDS011;21411;50.024;19.220;2023-09-18T02:48:26;15.50;;;13.70;;
35290;SDS011;21411;50.024;19.220;2023-09-18T02:50:53;16.70;;;15.10;;
35290;SDS011;21411;50.024;19.220;2023-09-18T02:53:20;15.00;;;13.50;;
35290;SDS011;21411;50.024;19.220;2023-09-18T02:55:49;15.70;;;14.10;;
35290;SDS011;21411;50.024;19.220;2023-09-18T02:58:18;14.50;;;13.20;;
35290;SDS011;21411;50.024;19.220;2023-09-18T03:00:46;15.40;;;14.10;;
35290;SDS011;21411;50.024;19.220;2023-09-18T03:03:13;15.20;;;13.70;;
35290;SDS011;21411;50.024;19.220;2023-09-18T03:05:41;16.10;;;14.50;;
35290;SDS011;21411;50.024;19.220;2023-09-18T03:08:09;15.60;;;14.10;;
35290;SDS011;21411;50.024;19.220;2023-09-18T03:10:38;16.30;;;14.80;;
35290;SDS011;21411;50.024;19.220;2023-09-18T03:13:07;15.90;;;14.30;;
35290;SDS011;21411;50.024;19.220;2023-09-18T03:15:34;15.80;;;14.30;;
35290;SDS011;21411;50.024;19.220;2023-09-18T03:18:02;17.00;;;15.30;;
35290;SDS011;21411;50.024;19.220;2023-09-18T03:20:30;17.00;;;15.20;;
35290;SDS011;21411;50.024;19.220;2023-09-18T03:22:58;17.90;;;16.20;;
35290;SDS011;21411;50.024;19.220;2023-09-18T03:25:26;16.20;;;14.10;;
35290;SDS011;21411;50.024;19.220;2023-09-18T03:27:54;16.50;;;14.90;;
35290;SDS011;21411;50.024;19.220;2023-09-18T03:30:22;17.90;;;16.10;;
35290;SDS011;21411;50.024;19.220;2023-09-18T03:32:50;17.60;;;15.90;;
35290;SDS011;21411;50.024;19.220;2023-09-18T03:35:18;19.90;;;15.90;;
35290;SDS011;21411;50.024;19.220;2023-09-18T03:37:46;17.80;;;16.10;;
35290;SDS011;21411;50.024;19.220;2023-09-18T03:40:20;17.90;;;16.30;;
35290;SDS011;21411;50.024;19.220;2023-09-18T03:42:48;18.30;;;16.50;;
35290;SDS011;21411;50.024;19.220;2023-09-18T03:45:15;18.70;;;16.70;;
35290;SDS011;21411;50.024;19.220;2023-09-18T03:47:45;18.40;;;16.50;;
35290;SDS011;21411;50.024;19.220;2023-09-18T03:50:12;18.20;;;16.30;;
35290;SDS011;21411;50.024;19.220;2023-09-18T03:52:39;19.50;;;17.00;;
35290;SDS011;21411;50.024;19.220;2023-09-18T03:55:06;18.30;;;16.50;;
35290;SDS011;21411;50.024;19.220;2023-09-18T03:57:33;18.10;;;16.30;;
35290;SDS011;21411;50.024;19.220;2023-09-18T03:59:59;17.30;;;15.60;;
35290;SDS011;21411;50.024;19.220;2023-09-18T04:02:26;18.50;;;16.80;;
35290;SDS011;21411;50.024;19.220;2023-09-18T04:04:53;18.50;;;16.70;;
35290;SDS011;21411;50.024;19.220;2023-09-18T04:07:20;18.60;;;16.90;;
35290;SDS011;21411;50.024;19.220;2023-09-18T04:09:47;18.80;;;16.80;;
35290;SDS011;21411;50.024;19.220;2023-09-18T04:12:13;17.70;;;16.00;;
35290;SDS011;21411;50.024;19.220;2023-09-18T04:14:40;17.10;;;15.50;;
35290;SDS011;21411;50.024;19.220;2023-09-18T04:17:07;20.70;;;17.60;;
35290;SDS011;21411;50.024;19.220;2023-09-18T04:19:34;18.20;;;16.50;;
35290;SDS011;21411;50.024;19.220;2023-09-18T04:22:00;17.70;;;16.00;;
35290;SDS011;21411;50.024;19.220;2023-09-18T04:24:27;18.60;;;16.70;;
35290;SDS011;21411;50.024;19.220;2023-09-18T04:26:53;18.70;;;16.80;;
35290;SDS011;21411;50.024;19.220;2023-09-18T04:29:20;19.30;;;17.20;;
35290;SDS011;21411;50.024;19.220;2023-09-18T04:31:46;19.40;;;17.40;;
35290;SDS011;21411;50.024;19.220;2023-09-18T04:34:14;19.60;;;17.70;;
35290;SDS011;21411;50.024;19.220;2023-09-18T04:36:40;19.00;;;17.10;;
35290;SDS011;21411;50.024;19.220;2023-09-18T04:39:08;19.40;;;17.50;;
35290;SDS011;21411;50.024;19.220;2023-09-18T04:41:35;19.40;;;17.50;;
35290;SDS011;21411;50.024;19.220;2023-09-18T04:44:02;19.20;;;17.20;;
35290;SDS011;21411;50.024;19.220;2023-09-18T04:46:29;20.10;;;18.10;;
35290;SDS011;21411;50.024;19.220;2023-09-18T04:48:56;18.40;;;16.50;;
35290;SDS011;21411;50.024;19.220;2023-09-18T04:51:22;18.50;;;16.70;;
35290;SDS011;21411;50.024;19.220;2023-09-18T04:53:49;17.50;;;15.70;;
35290;SDS011;21411;50.024;19.220;2023-09-18T04:56:18;17.20;;;15.30;;
35290;SDS011;21411;50.024;19.220;2023-09-18T04:58:45;16.50;;;14.90;;
35290;SDS011;21411;50.024;19.220;2023-09-18T05:01:12;15.80;;;14.20;;
35290;SDS011;21411;50.024;19.220;2023-09-18T05:03:39;14.30;;;13.00;;
35290;SDS011;21411;50.024;19.220;2023-09-18T05:06:06;14.30;;;12.90;;
35290;SDS011;21411;50.024;19.220;2023-09-18T05:08:33;13.60;;;12.20;;
35290;SDS011;21411;50.024;19.220;2023-09-18T05:10:59;13.20;;;12.10;;
35290;SDS011;21411;50.024;19.220;2023-09-18T05:13:27;13.80;;;12.50;;
35290;SDS011;21411;50.024;19.220;2023-09-18T05:15:53;12.70;;;11.50;;
35290;SDS011;21411;50.024;19.220;2023-09-18T05:18:20;12.10;;;10.90;;
35290;SDS011;21411;50.024;19.220;2023-09-18T05:20:46;13.00;;;11.70;;
35290;SDS011;21411;50.024;19.220;2023-09-18T05:23:13;12.50;;;11.10;;
35290;SDS011;21411;50.024;19.220;2023-09-18T05:25:41;12.60;;;11.30;;
35290;SDS011;21411;50.024;19.220;2023-09-18T05:28:08;13.40;;;11.30;;
35290;SDS011;21411;50.024;19.220;2023-09-18T05:30:35;11.80;;;10.40;;
35290;SDS011;21411;50.024;19.220;2023-09-18T05:33:04;12.80;;;10.90;;
35290;SDS011;21411;50.024;19.220;2023-09-18T05:35:33;11.50;;;10.40;;
35290;SDS011;21411;50.024;19.220;2023-09-18T05:40:31;17.80;;;11.20;;
35290;SDS011;21411;50.024;19.220;2023-09-18T05:42:58;11.50;;;10.30;;
35290;SDS011;21411;50.024;19.220;2023-09-18T05:45:25;11.90;;;9.90;;
35290;SDS011;21411;50.024;19.220;2023-09-18T05:47:53;12.80;;;10.50;;
35290;SDS011;21411;50.024;19.220;2023-09-18T05:50:19;11.30;;;10.30;;
35290;SDS011;21411;50.024;19.220;2023-09-18T05:52:47;13.80;;;11.00;;
35290;SDS011;21411;50.024;19.220;2023-09-18T05:55:15;15.50;;;10.50;;
35290;SDS011;21411;50.024;19.220;2023-09-18T05:57:42;11.60;;;10.50;;
35290;SDS011;21411;50.024;19.220;2023-09-18T06:00:08;12.30;;;11.10;;
35290;SDS011;21411;50.024;19.220;2023-09-18T06:02:39;13.30;;;11.60;;
35290;SDS011;21411;50.024;19.220;2023-09-18T06:05:07;12.70;;;11.40;;
35290;SDS011;21411;50.024;19.220;2023-09-18T06:07:37;13.60;;;12.20;;
35290;SDS011;21411;50.024;19.220;2023-09-18T06:10:04;12.60;;;11.50;;
35290;SDS011;21411;50.024;19.220;2023-09-18T06:12:32;12.50;;;11.20;;
35290;SDS011;21411;50.024;19.220;2023-09-18T06:14:58;12.30;;;11.10;;
35290;SDS011;21411;50.024;19.220;2023-09-18T06:17:25;12.30;;;10.90;;
35290;SDS011;21411;50.024;19.220;2023-09-18T06:19:51;13.20;;;11.80;;
35290;SDS011;21411;50.024;19.220;2023-09-18T06:22:18;13.30;;;12.20;;
35290;SDS011;21411;50.024;19.220;2023-09-18T06:24:45;13.00;;;11.60;;
35290;SDS011;21411;50.024;19.220;2023-09-18T06:27:11;13.50;;;12.30;;
35290;SDS011;21411;50.024;19.220;2023-09-18T06:29:38;14.40;;;12.80;;
35290;SDS011;21411;50.024;19.220;2023-09-18T06:32:05;13.60;;;12.40;;
35290;SDS011;21411;50.024;19.220;2023-09-18T06:34:32;14.50;;;13.20;;
35290;SDS011;21411;50.024;19.220;2023-09-18T06:36:59;13.70;;;12.30;;
35290;SDS011;21411;50.024;19.220;2023-09-18T06:39:25;13.70;;;12.30;;
35290;SDS011;21411;50.024;19.220;2023-09-18T06:41:52;14.00;;;12.50;;
35290;SDS011;21411;50.024;19.220;2023-09-18T06:44:19;14.50;;;12.80;;
35290;SDS011;21411;50.024;19.220;2023-09-18T06:46:45;13.70;;;12.40;;
35290;SDS011;21411;50.024;19.220;2023-09-18T06:49:12;13.60;;;12.40;;
35290;SDS011;21411;50.024;19.220;2023-09-18T06:51:38;13.20;;;11.90;;
35290;SDS011;21411;50.024;19.220;2023-09-18T06:54:05;14.30;;;13.00;;
35290;SDS011;21411;50.024;19.220;2023-09-18T06:56:32;13.20;;;12.00;;
35290;SDS011;21411;50.024;19.220;2023-09-18T06:58:58;12.90;;;11.90;;
35290;SDS011;21411;50.024;19.220;2023-09-18T07:01:25;13.30;;;12.00;;
35290;SDS011;21411;50.024;19.220;2023-09-18T07:03:52;13.20;;;12.10;;
35290;SDS011;21411;50.024;19.220;2023-09-18T07:06:18;12.10;;;10.90;;
35290;SDS011;21411;50.024;19.220;2023-09-18T07:08:46;13.50;;;12.00;;
35290;SDS011;21411;50.024;19.220;2023-09-18T07:11:16;13.80;;;12.40;;
35290;SDS011;21411;50.024;19.220;2023-09-18T07:13:43;15.10;;;13.50;;
35290;SDS011;21411;50.024;19.220;2023-09-18T07:16:10;13.90;;;12.60;;
35290;SDS011;21411;50.024;19.220;2023-09-18T07:18:37;13.80;;;12.40;;
35290;SDS011;21411;50.024;19.220;2023-09-18T07:21:04;14.00;;;12.50;;
35290;SDS011;21411;50.024;19.220;2023-09-18T07:23:31;13.60;;;12.30;;
35290;SDS011;21411;50.024;19.220;2023-09-18T07:25:57;13.10;;;12.00;;
35290;SDS011;21411;50.024;19.220;2023-09-18T07:28:24;13.80;;;12.60;;
35290;SDS011;21411;50.024;19.220;2023-09-18T07:30:51;16.10;;;12.90;;
35290;SDS011;21411;50.024;19.220;2023-09-18T07:33:18;13.90;;;12.60;;
35290;SDS011;21411;50.024;19.220;2023-09-18T07:35:46;13.80;;;12.60;;
35290;SDS011;21411;50.024;19.220;2023-09-18T07:38:14;13.50;;;11.80;;
35290;SDS011;21411;50.024;19.220;2023-09-18T07:40:41;13.00;;;11.90;;
35290;SDS011;21411;50.024;19.220;2023-09-18T07:43:08;14.20;;;12.90;;
35290;SDS011;21411;50.024;19.220;2023-09-18T07:45:34;13.00;;;11.90;;
35290;SDS011;21411;50.024;19.220;2023-09-18T07:48:01;13.80;;;12.60;;
35290;SDS011;21411;50.024;19.220;2023-09-18T07:50:28;13.70;;;12.50;;
35290;SDS011;21411;50.024;19.220;2023-09-18T07:52:54;14.70;;;12.10;;
35290;SDS011;21411;50.024;19.220;2023-09-18T07:55:21;12.50;;;11.40;;
35290;SDS011;21411;50.024;19.220;2023-09-18T07:57:48;13.80;;;12.60;;
35290;SDS011;21411;50.024;19.220;2023-09-18T08:00:15;13.10;;;11.90;;
35290;SDS011;21411;50.024;19.220;2023-09-18T08:02:42;13.20;;;12.10;;
35290;SDS011;21411;50.024;19.220;2023-09-18T08:05:10;13.60;;;12.40;;
35290;SDS011;21411;50.024;19.220;2023-09-18T08:07:36;14.50;;;13.20;;
35290;SDS011;21411;50.024;19.220;2023-09-18T08:10:03;13.80;;;12.60;;
35290;SDS011;21411;50.024;19.220;2023-09-18T08:12:34;14.70;;;13.30;;
35290;SDS011;21411;50.024;19.220;2023-09-18T08:15:01;13.30;;;12.20;;
35290;SDS011;21411;50.024;19.220;2023-09-18T08:17:29;14.20;;;12.90;;
35290;SDS011;21411;50.024;19.220;2023-09-18T08:19:55;15.10;;;13.30;;
35290;SDS011;21411;50.024;19.220;2023-09-18T08:22:22;14.20;;;12.90;;
35290;SDS011;21411;50.024;19.220;2023-09-18T08:24:48;13.30;;;12.10;;
35290;SDS011;21411;50.024;19.220;2023-09-18T08:27:15;14.60;;;13.30;;
35290;SDS011;21411;50.024;19.220;2023-09-18T08:29:45;14.00;;;12.80;;
35290;SDS011;21411;50.024;19.220;2023-09-18T08:32:13;13.40;;;12.30;;
35290;SDS011;21411;50.024;19.220;2023-09-18T08:34:39;14.40;;;13.20;;
35290;SDS011;21411;50.024;19.220;2023-09-18T08:37:06;13.10;;;12.10;;
35290;SDS011;21411;50.024;19.220;2023-09-18T08:39:34;13.30;;;12.00;;
35290;SDS011;21411;50.024;19.220;2023-09-18T08:42:05;13.50;;;12.30;;
35290;SDS011;21411;50.024;19.220;2023-09-18T08:44:35;14.10;;;12.80;;
35290;SDS011;21411;50.024;19.220;2023-09-18T08:47:05;13.10;;;12.00;;
35290;SDS011;21411;50.024;19.220;2023-09-18T08:49:34;14.60;;;13.30;;
35290;SDS011;21411;50.024;19.220;2023-09-18T08:52:01;13.70;;;12.50;;
35290;SDS011;21411;50.024;19.220;2023-09-18T08:54:29;14.60;;;13.20;;
35290;SDS011;21411;50.024;19.220;2023-09-18T08:56:55;14.20;;;13.10;;
35290;SDS011;21411;50.024;19.220;2023-09-18T08:59:22;13.30;;;12.10;;
35290;SDS011;21411;50.024;19.220;2023-09-18T09:01:51;22.70;;;14.30;;
35290;SDS011;21411;50.024;19.220;2023-09-18T09:04:17;14.20;;;13.10;;
35290;SDS011;21411;50.024;19.220;2023-09-18T09:06:44;14.80;;;13.50;;
35290;SDS011;21411;50.024;19.220;2023-09-18T09:09:11;14.60;;;13.40;;
35290;SDS011;21411;50.024;19.220;2023-09-18T09:11:39;15.00;;;13.80;;
35290;SDS011;21411;50.024;19.220;2023-09-18T09:16:48;14.00;;;12.90;;
35290;SDS011;21411;50.024;19.220;2023-09-18T09:19:16;13.70;;;12.70;;
35290;SDS011;21411;50.024;19.220;2023-09-18T09:21:44;13.70;;;12.70;;
35290;SDS011;21411;50.024;19.220;2023-09-18T09:24:11;14.60;;;13.50;;
35290;SDS011;21411;50.024;19.220;2023-09-18T09:26:40;14.10;;;13.10;;
35290;SDS011;21411;50.024;19.220;2023-09-18T09:29:14;13.20;;;12.20;;
35290;SDS011;21411;50.024;19.220;2023-09-18T09:31:44;13.00;;;12.10;;
35290;SDS011;21411;50.024;19.220;2023-09-18T09:34:12;17.60;;;12.20;;
35290;SDS011;21411;50.024;19.220;2023-09-18T09:36:53;13.50;;;12.40;;
35290;SDS011;21411;50.024;19.220;2023-09-18T09:39:21;12.10;;;11.10;;
35290;SDS011;21411;50.024;19.220;2023-09-18T09:41:52;12.50;;;11.30;;
35290;SDS011;21411;50.024;19.220;2023-09-18T09:44:19;13.10;;;12.00;;
35290;SDS011;21411;50.024;19.220;2023-09-18T09:46:50;12.10;;;11.20;;
35290;SDS011;21411;50.024;19.220;2023-09-18T09:49:17;12.10;;;11.00;;
35290;SDS011;21411;50.024;19.220;2023-09-18T09:51:46;11.90;;;10.90;;
35290;SDS011;21411;50.024;19.220;2023-09-18T09:54:12;11.50;;;10.70;;
35290;SDS011;21411;50.024;19.220;2023-09-18T09:56:47;11.20;;;10.40;;
35290;SDS011;21411;50.024;19.220;2023-09-18T09:59:17;11.50;;;10.60;;
35290;SDS011;21411;50.024;19.220;2023-09-18T10:01:46;11.20;;;10.20;;
35290;SDS011;21411;50.024;19.220;2023-09-18T10:04:15;10.40;;;9.60;;
35290;SDS011;21411;50.024;19.220;2023-09-18T10:07:05;10.40;;;9.70;;
35290;SDS011;21411;50.024;19.220;2023-09-18T10:09:38;11.00;;;10.20;;
35290;SDS011;21411;50.024;19.220;2023-09-18T10:12:11;10.60;;;9.80;;
35290;SDS011;21411;50.024;19.220;2023-09-18T10:14:39;10.10;;;9.40;;
35290;SDS011;21411;50.024;19.220;2023-09-18T10:17:18;10.40;;;9.60;;
35290;SDS011;21411;50.024;19.220;2023-09-18T10:19:49;10.00;;;9.20;;
35290;SDS011;21411;50.024;19.220;2023-09-18T10:22:30;10.90;;;9.50;;
35290;SDS011;21411;50.024;19.220;2023-09-18T10:25:06;10.60;;;9.80;;
35290;SDS011;21411;50.024;19.220;2023-09-18T10:27:39;10.90;;;10.00;;
35290;SDS011;21411;50.024;19.220;2023-09-18T10:30:07;9.60;;;8.90;;
35290;SDS011;21411;50.024;19.220;2023-09-18T10:32:40;11.40;;;10.00;;
35290;SDS011;21411;50.024;19.220;2023-09-18T10:35:07;10.00;;;9.20;;
35290;SDS011;21411;50.024;19.220;2023-09-18T10:37:34;10.00;;;9.00;;
35290;SDS011;21411;50.024;19.220;2023-09-18T10:40:02;10.10;;;9.30;;
35290;SDS011;21411;50.024;19.220;2023-09-18T10:42:40;10.20;;;9.30;;
35290;SDS011;21411;50.024;19.220;2023-09-18T10:45:09;10.10;;;9.20;;
35290;SDS011;21411;50.024;19.220;2023-09-18T10:47:38;10.10;;;9.30;;
35290;SDS011;21411;50.024;19.220;2023-09-18T10:50:07;9.80;;;8.90;;
35290;SDS011;21411;50.024;19.220;2023-09-18T10:52:35;9.80;;;9.00;;
35290;SDS011;21411;50.024;19.220;2023-09-18T10:55:02;9.50;;;8.80;;
35290;SDS011;21411;50.024;19.220;2023-09-18T10:57:34;9.80;;;9.00;;
35290;SDS011;21411;50.024;19.220;2023-09-18T11:00:05;9.20;;;8.60;;
35290;SDS011;21411;50.024;19.220;2023-09-18T11:02:40;9.60;;;8.80;;
35290;SDS011;21411;50.024;19.220;2023-09-18T11:05:07;9.10;;;8.50;;
35290;SDS011;21411;50.024;19.220;2023-09-18T11:07:34;9.60;;;8.80;;
35290;SDS011;21411;50.024;19.220;2023-09-18T11:10:00;9.60;;;8.70;;
35290;SDS011;21411;50.024;19.220;2023-09-18T11:12:53;9.60;;;8.80;;
35290;SDS011;21411;50.024;19.220;2023-09-18T11:15:39;8.40;;;7.80;;
35290;SDS011;21411;50.024;19.220;2023-09-18T11:18:05;9.60;;;8.80;;
35290;SDS011;21411;50.024;19.220;2023-09-18T11:20:33;9.10;;;8.50;;
35290;SDS011;21411;50.024;19.220;2023-09-18T11:23:10;9.70;;;9.00;;
35290;SDS011;21411;50.024;19.220;2023-09-18T11:25:43;8.40;;;7.80;;
35290;SDS011;21411;50.024;19.220;2023-09-18T11:28:23;8.90;;;8.10;;
35290;SDS011;21411;50.024;19.220;2023-09-18T11:30:52;9.10;;;8.30;;
35290;SDS011;21411;50.024;19.220;2023-09-18T11:33:31;8.30;;;7.60;;
35290;SDS011;21411;50.024;19.220;2023-09-18T11:36:14;7.60;;;6.90;;
35290;SDS011;21411;50.024;19.220;2023-09-18T11:38:57;8.20;;;7.50;;
35290;SDS011;21411;50.024;19.220;2023-09-18T11:41:32;8.50;;;7.80;;
35290;SDS011;21411;50.024;19.220;2023-09-18T11:46:41;8.50;;;7.80;;
35290;SDS011;21411;50.024;19.220;2023-09-18T11:49:12;7.90;;;7.40;;
35290;SDS011;21411;50.024;19.220;2023-09-18T11:51:39;8.20;;;7.60;;
35290;SDS011;21411;50.024;19.220;2023-09-18T11:54:06;8.20;;;7.50;;
35290;SDS011;21411;50.024;19.220;2023-09-18T11:56:34;7.40;;;6.90;;
35290;SDS011;21411;50.024;19.220;2023-09-18T11:59:00;7.80;;;7.10;;
35290;SDS011;21411;50.024;19.220;2023-09-18T12:01:31;8.60;;;7.90;;
35290;SDS011;21411;50.024;19.220;2023-09-18T12:04:02;7.90;;;7.30;;
35290;SDS011;21411;50.024;19.220;2023-09-18T12:06:40;8.40;;;7.70;;
35290;SDS011;21411;50.024;19.220;2023-09-18T12:09:07;8.40;;;7.80;;
35290;SDS011;21411;50.024;19.220;2023-09-18T12:11:39;8.50;;;7.90;;
35290;SDS011;21411;50.024;19.220;2023-09-18T12:14:08;9.10;;;8.40;;
35290;SDS011;21411;50.024;19.220;2023-09-18T12:16:38;9.00;;;8.30;;
35290;SDS011;21411;50.024;19.220;2023-09-18T12:19:08;8.10;;;7.50;;
35290;SDS011;21411;50.024;19.220;2023-09-18T12:21:40;8.50;;;7.60;;
35290;SDS011;21411;50.024;19.220;2023-09-18T12:24:12;8.40;;;7.70;;
35290;SDS011;21411;50.024;19.220;2023-09-18T12:26:40;8.70;;;8.00;;
35290;SDS011;21411;50.024;19.220;2023-09-18T12:29:07;7.60;;;7.00;;
35290;SDS011;21411;50.024;19.220;2023-09-18T12:31:34;8.60;;;7.80;;
35290;SDS011;21411;50.024;19.220;2023-09-18T12:34:01;8.40;;;7.70;;
35290;SDS011;21411;50.024;19.220;2023-09-18T12:36:28;8.10;;;7.40;;
35290;SDS011;21411;50.024;19.220;2023-09-18T12:38:56;8.00;;;7.40;;
35290;SDS011;21411;50.024;19.220;2023-09-18T12:41:24;7.70;;;7.20;;
35290;SDS011;21411;50.024;19.220;2023-09-18T12:43:51;8.80;;;8.00;;
35290;SDS011;21411;50.024;19.220;2023-09-18T12:46:19;7.90;;;7.30;;
35290;SDS011;21411;50.024;19.220;2023-09-18T12:48:47;7.80;;;7.10;;
35290;SDS011;21411;50.024;19.220;2023-09-18T12:51:14;7.80;;;7.30;;
35290;SDS011;21411;50.024;19.220;2023-09-18T12:53:42;8.10;;;7.50;;
35290;SDS011;21411;50.024;19.220;2023-09-18T12:56:13;7.70;;;7.20;;
35290;SDS011;21411;50.024;19.220;2023-09-18T12:58:40;9.00;;;8.30;;
35290;SDS011;21411;50.024;19.220;2023-09-18T13:01:09;8.40;;;7.70;;
35290;SDS011;21411;50.024;19.220;2023-09-18T13:03:44;9.10;;;8.40;;
35290;SDS011;21411;50.024;19.220;2023-09-18T13:06:16;8.20;;;7.60;;
35290;SDS011;21411;50.024;19.220;2023-09-18T13:08:44;9.00;;;8.30;;
35290;SDS011;21411;50.024;19.220;2023-09-18T13:11:11;8.00;;;7.20;;
35290;SDS011;21411;50.024;19.220;2023-09-18T13:13:40;8.90;;;8.30;;
35290;SDS011;21411;50.024;19.220;2023-09-18T13:16:08;8.10;;;7.50;;
35290;SDS011;21411;50.024;19.220;2023-09-18T13:18:37;9.30;;;8.60;;
35290;SDS011;21411;50.024;19.220;2023-09-18T13:21:11;8.80;;;8.20;;
35290;SDS011;21411;50.024;19.220;2023-09-18T13:23:39;9.00;;;8.30;;
35290;SDS011;21411;50.024;19.220;2023-09-18T13:26:06;8.80;;;8.00;;
35290;SDS011;21411;50.024;19.220;2023-09-18T13:28:34;9.30;;;8.60;;
35290;SDS011;21411;50.024;19.220;2023-09-18T13:31:05;8.00;;;7.40;;
35290;SDS011;21411;50.024;19.220;2023-09-18T13:33:33;8.20;;;7.60;;
35290;SDS011;21411;50.024;19.220;2023-09-18T13:36:04;8.80;;;8.10;;
35290;SDS011;21411;50.024;19.220;2023-09-18T13:38:31;8.30;;;7.70;;
35290;SDS011;21411;50.024;19.220;2023-09-18T13:40:58;8.40;;;7.80;;
35290;SDS011;21411;50.024;19.220;2023-09-18T13:43:24;7.70;;;7.10;;
35290;SDS011;21411;50.024;19.220;2023-09-18T13:45:53;8.20;;;7.60;;
35290;SDS011;21411;50.024;19.220;2023-09-18T13:48:22;9.30;;;8.40;;
35290;SDS011;21411;50.024;19.220;2023-09-18T13:50:49;8.30;;;7.70;;
35290;SDS011;21411;50.024;19.220;2023-09-18T13:53:17;8.60;;;7.80;;
35290;SDS011;21411;50.024;19.220;2023-09-18T13:55:44;8.20;;;7.30;;
35290;SDS011;21411;50.024;19.220;2023-09-18T13:58:10;9.20;;;8.40;;
35290;SDS011;21411;50.024;19.220;2023-09-18T14:00:37;7.90;;;7.20;;
35290;SDS011;21411;50.024;19.220;2023-09-18T14:03:04;8.40;;;7.70;;
35290;SDS011;21411;50.024;19.220;2023-09-18T14:05:30;8.80;;;7.40;;
35290;SDS011;21411;50.024;19.220;2023-09-18T14:07:59;7.00;;;6.50;;
35290;SDS011;21411;50.024;19.220;2023-09-18T14:10:27;7.50;;;6.90;;
35290;SDS011;21411;50.024;19.220;2023-09-18T14:12:54;7.90;;;7.30;;
35290;SDS011;21411;50.024;19.220;2023-09-18T14:15:21;8.50;;;7.80;;
35290;SDS011;21411;50.024;19.220;2023-09-18T14:17:47;7.70;;;7.10;;
35290;SDS011;21411;50.024;19.220;2023-09-18T14:20:15;8.00;;;7.30;;
35290;SDS011;21411;50.024;19.220;2023-09-18T14:22:44;8.00;;;7.30;;
35290;SDS011;21411;50.024;19.220;2023-09-18T14:25:12;7.60;;;7.00;;
35290;SDS011;21411;50.024;19.220;2023-09-18T14:27:39;7.80;;;7.10;;
35290;SDS011;21411;50.024;19.220;2023-09-18T14:30:06;8.00;;;7.30;;
35290;SDS011;21411;50.024;19.220;2023-09-18T14:32:33;7.10;;;6.50;;
35290;SDS011;21411;50.024;19.220;2023-09-18T14:35:02;7.90;;;7.20;;
35290;SDS011;21411;50.024;19.220;2023-09-18T14:37:31;7.70;;;7.00;;